createdAt,value
2023-03-15T00:00:55.447Z,1.98
2023-03-15T00:03:26.449Z,1.55
2023-03-15T00:05:53.297Z,1.67
2023-03-15T00:08:21.820Z,1.73
2023-03-15T00:10:48.999Z,0.95
2023-03-15T00:13:17.134Z,0.85
2023-03-15T00:15:52.157Z,1.73
2023-03-15T00:18:20.615Z,1.08
2023-03-15T00:20:48.198Z,1.90
2023-03-15T00:23:15.705Z,1.67
2023-03-15T00:25:46.874Z,1.35
2023-03-15T00:28:14.579Z,1.45
2023-03-15T00:30:41.841Z,1.25
2023-03-15T00:33:08.829Z,2.17
2023-03-15T00:35:40.594Z,2.58
2023-03-15T00:38:08.097Z,1.90
2023-03-15T00:40:37.032Z,3.25
2023-03-15T00:43:03.806Z,2.13
2023-03-15T00:45:30.570Z,3.47
2023-03-15T00:47:57.636Z,2.80
2023-03-15T00:50:26.087Z,2.67
2023-03-15T00:52:52.785Z,3.08
2023-03-15T00:55:21.492Z,5.40
2023-03-15T00:57:48.809Z,3.45
2023-03-15T01:00:23.288Z,2.72
2023-03-15T01:02:53.871Z,4.10
2023-03-15T01:05:21.149Z,4.50
2023-03-15T01:07:48.552Z,4.57
2023-03-15T01:10:16.468Z,4.72
2023-03-15T01:12:43.252Z,7.35
2023-03-15T01:15:13.352Z,5.72
2023-03-15T01:17:40.705Z,5.50
2023-03-15T01:20:08.678Z,3.42
2023-03-15T01:22:35.434Z,3.63
2023-03-15T01:25:02.274Z,2.30
2023-03-15T01:27:29.547Z,3.65
2023-03-15T01:29:56.317Z,4.55
2023-03-15T01:32:23.378Z,5.88
2023-03-15T01:34:50.437Z,3.08
2023-03-15T01:37:17.149Z,5.55
2023-03-15T01:39:43.876Z,6.55
2023-03-15T01:42:11.018Z,2.83
2023-03-15T01:44:56.128Z,5.35
2023-03-15T01:47:25.981Z,3.22
2023-03-15T01:50:06.784Z,4.32
2023-03-15T01:52:38.836Z,5.47
2023-03-15T01:55:16.520Z,5.22
2023-03-15T01:57:52.226Z,6.95
2023-03-15T02:00:20.212Z,5.38
2023-03-15T02:03:01.751Z,5.20
2023-03-15T02:05:45.983Z,4.85
2023-03-15T02:08:15.341Z,5.10
2023-03-15T02:10:49.300Z,5.00
2023-03-15T02:13:23.939Z,3.00
2023-03-15T02:15:53.521Z,4.85
2023-03-15T02:18:21.462Z,5.50
2023-03-15T02:21:00.218Z,3.50
2023-03-15T02:23:28.712Z,3.13
2023-03-15T02:26:14.221Z,6.80
2023-03-15T02:28:42.322Z,3.97
2023-03-15T02:31:10.660Z,5.70
2023-03-15T02:33:49.625Z,4.60
2023-03-15T02:36:24.111Z,7.47
2023-03-15T02:38:52.195Z,17.13
2023-03-15T02:41:26.519Z,7.85
2023-03-15T02:43:56.753Z,6.40
2023-03-15T02:46:24.089Z,8.65
2023-03-15T02:48:54.085Z,8.77
2023-03-15T02:51:24.430Z,6.68
2023-03-15T02:53:51.183Z,8.48
2023-03-15T02:56:18.912Z,10.73
2023-03-15T02:58:45.938Z,9.32
2023-03-15T03:01:14.128Z,4.22
2023-03-15T03:03:46.058Z,7.40
2023-03-15T03:06:14.324Z,9.45
2023-03-15T03:08:41.085Z,9.68
2023-03-15T03:11:08.015Z,5.70
2023-03-15T03:13:34.746Z,7.28
2023-03-15T03:16:01.476Z,7.50
2023-03-15T03:18:30.297Z,10.55
2023-03-15T03:20:58.649Z,7.43
2023-03-15T03:23:26.408Z,8.80
2023-03-15T03:25:54.286Z,11.00
2023-03-15T03:28:24.122Z,8.43
2023-03-15T03:30:52.162Z,6.75
2023-03-15T03:33:19.173Z,11.57
2023-03-15T03:35:45.945Z,8.93
2023-03-15T03:38:13.107Z,8.38
2023-03-15T03:40:40.703Z,6.30
2023-03-15T03:43:08.658Z,6.53
2023-03-15T03:45:35.787Z,8.77
2023-03-15T03:48:02.544Z,5.50
2023-03-15T03:50:29.428Z,8.38
2023-03-15T03:52:56.169Z,6.68
2023-03-15T03:55:25.459Z,8.20
2023-03-15T03:57:55.231Z,9.90
2023-03-15T04:00:22.047Z,8.93
2023-03-15T04:02:49.083Z,6.47
2023-03-15T04:05:15.940Z,8.60
2023-03-15T04:07:42.727Z,9.32
2023-03-15T04:10:14.551Z,16.77
2023-03-15T04:16:33.382Z,10.90
2023-03-15T04:19:00.142Z,11.32
2023-03-15T04:21:31.795Z,10.13
2023-03-15T04:23:59.532Z,10.25
2023-03-15T04:26:29.748Z,12.40
2023-03-15T04:28:58.596Z,8.85
2023-03-15T04:31:28.816Z,13.18
2023-03-15T04:33:56.288Z,14.52
2023-03-15T04:36:23.748Z,7.95
2023-03-15T04:38:50.891Z,11.75
2023-03-15T04:41:18.636Z,7.15
2023-03-15T04:43:45.544Z,10.32
2023-03-15T04:46:12.501Z,8.07
2023-03-15T04:48:39.291Z,7.43
2023-03-15T04:51:06.151Z,10.95
2023-03-15T04:53:33.017Z,10.60
2023-03-15T04:55:59.802Z,9.05
2023-03-15T04:58:26.558Z,8.65
2023-03-15T05:00:54.066Z,8.07
2023-03-15T05:03:20.990Z,8.68
2023-03-15T05:05:47.736Z,12.85
2023-03-15T05:08:14.473Z,5.88
2023-03-15T05:10:41.224Z,9.50
2023-03-15T05:13:07.989Z,8.75
2023-03-15T05:15:34.749Z,9.90
2023-03-15T05:18:01.602Z,10.27
2023-03-15T05:20:29.006Z,8.27
2023-03-15T05:22:55.865Z,6.45
2023-03-15T05:25:24.388Z,7.55
2023-03-15T05:27:51.244Z,10.75
2023-03-15T05:30:18.088Z,9.60
2023-03-15T05:32:45.017Z,7.10
2023-03-15T05:35:12.799Z,10.75
2023-03-15T05:37:39.618Z,8.18
2023-03-15T05:40:10.171Z,8.70
2023-03-15T05:42:37.205Z,8.80
2023-03-15T05:45:04.248Z,7.18
2023-03-15T05:47:33.251Z,9.13
2023-03-15T05:50:00.771Z,9.80
2023-03-15T05:52:27.545Z,9.90
2023-03-15T05:54:54.289Z,8.60
2023-03-15T05:57:21.092Z,9.95
2023-03-15T05:59:47.815Z,7.78
2023-03-15T06:02:14.857Z,7.97
2023-03-15T06:04:41.701Z,7.18
2023-03-15T06:07:08.761Z,8.95
2023-03-15T06:09:35.459Z,8.65
2023-03-15T06:12:02.210Z,8.65
2023-03-15T06:14:29.819Z,14.55
2023-03-15T06:16:56.533Z,11.85
2023-03-15T06:19:23.481Z,13.63
2023-03-15T06:21:50.223Z,8.00
2023-03-15T06:24:17.011Z,11.45
2023-03-15T06:26:43.752Z,12.40
2023-03-15T06:29:10.541Z,9.85
2023-03-15T06:31:37.301Z,9.75
2023-03-15T06:34:04.039Z,11.07
2023-03-15T06:36:31.755Z,11.07
2023-03-15T06:38:58.637Z,10.90
2023-03-15T06:41:26.728Z,9.45
2023-03-15T06:43:53.468Z,11.68
2023-03-15T06:46:20.235Z,10.43
2023-03-15T06:48:46.969Z,10.98
2023-03-15T06:51:13.817Z,7.80
2023-03-15T06:53:41.550Z,7.07
2023-03-15T06:56:08.355Z,17.75
2023-03-15T06:58:35.074Z,10.27
2023-03-15T07:01:01.912Z,15.05
2023-03-15T07:03:28.777Z,13.73
2023-03-15T07:05:55.574Z,9.15
2023-03-15T07:08:24.889Z,12.30
2023-03-15T07:10:52.103Z,8.82
2023-03-15T07:13:19.555Z,8.75
2023-03-15T07:15:47.773Z,9.23
2023-03-15T07:18:14.586Z,14.00
2023-03-15T07:20:41.844Z,11.15
2023-03-15T07:23:08.569Z,11.68
2023-03-15T07:25:48.345Z,14.73
2023-03-15T07:28:22.395Z,10.63
2023-03-15T07:31:01.613Z,13.15
2023-03-15T07:33:31.143Z,7.95
2023-03-15T07:35:57.991Z,15.40
2023-03-15T07:38:28.723Z,11.55
2023-03-15T07:40:55.777Z,9.88
2023-03-15T07:43:22.767Z,11.35
2023-03-15T07:45:50.069Z,14.00
2023-03-15T07:48:17.027Z,14.60
2023-03-15T07:50:44.998Z,11.45
2023-03-15T07:53:11.775Z,12.55
2023-03-15T07:55:38.518Z,13.65
2023-03-15T07:58:05.938Z,12.20
2023-03-15T08:00:33.264Z,12.18
2023-03-15T08:03:00.595Z,14.20
2023-03-15T08:05:29.123Z,13.40
2023-03-15T08:07:56.667Z,10.23
2023-03-15T08:10:23.850Z,14.02
2023-03-15T08:12:50.796Z,10.30
2023-03-15T08:15:18.468Z,17.30
2023-03-15T08:17:48.198Z,15.45
2023-03-15T08:20:17.712Z,14.80
2023-03-15T08:22:45.907Z,9.85
2023-03-15T08:25:15.442Z,12.80
2023-03-15T08:27:42.280Z,12.73
2023-03-15T08:30:13.832Z,13.80
2023-03-15T08:32:42.166Z,11.07
2023-03-15T08:35:09.461Z,11.50
2023-03-15T08:37:36.466Z,15.85
2023-03-15T08:40:09.558Z,11.77
2023-03-15T08:42:37.797Z,12.00
2023-03-15T08:45:07.050Z,10.93
2023-03-15T08:47:35.301Z,9.07
2023-03-15T08:50:22.332Z,10.80
2023-03-15T08:52:49.210Z,11.93
2023-03-15T08:55:16.131Z,13.93
2023-03-15T08:57:43.132Z,12.23
2023-03-15T09:00:23.275Z,10.15
2023-03-15T09:02:54.155Z,15.15
2023-03-15T09:05:24.005Z,12.50
2023-03-15T09:07:53.006Z,8.65
2023-03-15T09:10:20.239Z,10.43
2023-03-15T09:12:49.439Z,11.65
2023-03-15T09:15:17.001Z,7.53
2023-03-15T09:17:43.778Z,7.95
2023-03-15T09:20:16.925Z,9.93
2023-03-15T09:22:44.500Z,8.52
2023-03-15T09:25:11.324Z,11.88
2023-03-15T09:27:38.237Z,16.00
2023-03-15T09:30:05.918Z,13.02
2023-03-15T09:32:36.652Z,13.35
2023-03-15T09:35:04.933Z,8.90
2023-03-15T09:37:31.992Z,13.43
2023-03-15T09:39:58.824Z,11.63
2023-03-15T09:42:54.138Z,9.35
2023-03-15T09:45:46.760Z,12.02
2023-03-15T09:48:17.905Z,8.68
2023-03-15T09:50:51.071Z,11.38
2023-03-15T09:53:24.792Z,8.57
2023-03-15T09:55:52.173Z,10.75
2023-03-15T09:58:24.668Z,10.52
2023-03-15T10:00:54.787Z,11.13
2023-03-15T10:03:38.396Z,8.63
2023-03-15T10:06:18.593Z,8.57
2023-03-15T10:08:47.384Z,9.07
2023-03-15T10:11:41.081Z,8.43
2023-03-15T10:14:07.873Z,9.25
2023-03-15T10:16:47.170Z,12.65
2023-03-15T10:19:22.832Z,7.43
2023-03-15T10:21:52.492Z,6.95
2023-03-15T10:24:42.580Z,6.75
2023-03-15T10:27:31.716Z,9.23
2023-03-15T10:30:00.402Z,11.50
2023-03-15T10:32:34.482Z,9.63
2023-03-15T10:35:01.796Z,7.78
2023-03-15T10:37:28.818Z,7.15
2023-03-15T10:39:58.151Z,7.90
2023-03-15T10:42:32.986Z,4.65
2023-03-15T10:45:22.180Z,7.50
2023-03-15T10:47:59.594Z,8.38
2023-03-15T10:50:32.791Z,7.32
2023-03-15T10:53:08.725Z,6.55
2023-03-15T10:55:45.438Z,9.70
2023-03-15T10:58:22.389Z,8.77
2023-03-15T11:00:52.559Z,8.18
2023-03-15T11:03:22.548Z,5.70
2023-03-15T11:05:54.475Z,4.85
2023-03-15T11:08:24.122Z,5.63
2023-03-15T11:10:59.640Z,8.13
2023-03-15T11:13:29.247Z,6.72
2023-03-15T11:16:04.644Z,7.53
2023-03-15T11:18:48.619Z,6.03
2023-03-15T11:21:17.516Z,6.40
2023-03-15T11:23:48.596Z,7.10
2023-03-15T11:26:32.355Z,6.65
2023-03-15T11:29:04.383Z,7.38
2023-03-15T11:31:31.868Z,5.57
2023-03-15T11:34:08.280Z,8.05
2023-03-15T11:36:39.805Z,7.97
2023-03-15T11:39:12.538Z,8.75
2023-03-15T11:41:56.639Z,6.38
2023-03-15T11:44:33.464Z,6.28
2023-03-15T11:47:16.308Z,9.30
2023-03-15T11:49:56.425Z,5.97
2023-03-15T11:52:28.823Z,4.07
2023-03-15T11:54:59.574Z,7.95
2023-03-15T11:57:29.231Z,11.05
2023-03-15T11:59:57.391Z,8.30
2023-03-15T12:02:24.261Z,8.63
2023-03-15T12:04:54.897Z,7.13
2023-03-15T12:07:24.273Z,6.88
2023-03-15T12:09:52.644Z,6.25
2023-03-15T12:12:36.110Z,6.07
2023-03-15T12:15:14.877Z,9.13
2023-03-15T12:18:06.121Z,8.18
2023-03-15T12:20:42.814Z,5.05
2023-03-15T12:23:18.589Z,7.38
2023-03-15T12:26:03.325Z,10.05
2023-03-15T12:28:34.309Z,4.30
2023-03-15T12:31:04.206Z,6.22
2023-03-15T12:33:32.751Z,9.43
2023-03-15T12:36:02.981Z,6.18
2023-03-15T12:38:38.244Z,9.82
2023-03-15T12:41:29.758Z,7.82
2023-03-15T12:44:31.832Z,12.13
2023-03-15T12:47:03.836Z,6.90
2023-03-15T12:49:37.275Z,9.77
2023-03-15T12:54:51.467Z,7.78
2023-03-15T12:57:21.711Z,7.57
2023-03-15T12:59:53.873Z,7.35
2023-03-15T13:02:42.857Z,8.27
2023-03-15T13:05:19.307Z,5.15
2023-03-15T13:07:54.102Z,5.93
2023-03-15T13:10:26.817Z,7.25
2023-03-15T13:13:05.732Z,10.68
2023-03-15T13:15:57.193Z,8.32
2023-03-15T13:18:26.554Z,11.70
2023-03-15T13:21:23.822Z,5.63
2023-03-15T13:23:52.228Z,8.68
2023-03-15T13:26:23.171Z,6.45
2023-03-15T13:28:58.120Z,6.72
2023-03-15T13:31:28.040Z,5.47
2023-03-15T13:33:58.211Z,6.13
2023-03-15T13:36:39.801Z,7.05
2023-03-15T13:39:20.563Z,3.92
2023-03-15T13:41:47.710Z,3.50
2023-03-15T13:44:20.877Z,5.22
2023-03-15T13:46:49.483Z,5.50
2023-03-15T13:49:16.790Z,6.50
2023-03-15T13:51:45.710Z,6.20
2023-03-15T13:54:32.267Z,5.25
2023-03-15T13:57:03.749Z,5.70
2023-03-15T13:59:49.638Z,9.10
2023-03-15T14:02:38.944Z,4.47
2023-03-15T14:05:13.621Z,9.35
2023-03-15T14:07:41.960Z,6.03
2023-03-15T14:10:34.742Z,5.20
2023-03-15T14:13:58.471Z,6.95
2023-03-15T14:17:02.953Z,4.50
2023-03-15T14:19:35.815Z,6.90
2023-03-15T14:22:17.945Z,4.95
2023-03-15T14:24:48.432Z,5.60
2023-03-15T14:27:27.176Z,6.47
2023-03-15T14:29:59.141Z,4.45
2023-03-15T14:32:35.363Z,5.47
2023-03-15T14:35:18.202Z,4.97
2023-03-15T14:37:45.588Z,6.67
2023-03-15T14:40:14.968Z,6.22
2023-03-15T14:42:45.883Z,4.43
2023-03-15T14:45:13.481Z,6.93
2023-03-15T14:48:01.065Z,5.72
2023-03-15T14:50:32.441Z,6.07
2023-03-15T14:52:59.573Z,6.40
2023-03-15T14:55:34.607Z,6.82
2023-03-15T14:58:09.592Z,3.92
2023-03-15T15:00:36.354Z,4.88
2023-03-15T15:03:06.467Z,5.60
2023-03-15T15:05:36.012Z,4.50
2023-03-15T15:08:06.459Z,7.50
2023-03-15T15:10:34.774Z,4.22
2023-03-15T15:13:06.465Z,2.53
2023-03-15T15:15:47.470Z,3.50
2023-03-15T15:18:22.105Z,2.47
2023-03-15T15:20:51.368Z,3.08
2023-03-15T15:23:20.876Z,3.30
2023-03-15T15:25:49.169Z,2.50
2023-03-15T15:28:27.497Z,6.03
2023-03-15T15:31:00.905Z,3.90
2023-03-15T15:33:27.695Z,4.15
2023-03-15T15:35:57.182Z,4.50
2023-03-15T15:38:32.173Z,6.07
2023-03-15T15:40:58.967Z,4.45
2023-03-15T15:43:25.724Z,4.95
2023-03-15T15:45:52.467Z,7.32
2023-03-15T15:48:21.010Z,4.38
2023-03-15T15:50:47.910Z,4.30
2023-03-15T15:53:18.335Z,5.03
2023-03-15T15:55:45.981Z,4.25
2023-03-15T15:58:13.977Z,5.70
2023-03-15T16:00:40.735Z,5.28
2023-03-15T16:03:16.415Z,3.40
2023-03-15T16:05:43.263Z,3.78
2023-03-15T16:08:21.640Z,4.20
2023-03-15T16:10:48.541Z,6.18
2023-03-15T16:13:16.872Z,4.13
2023-03-15T16:15:43.920Z,6.28
2023-03-15T16:18:12.627Z,4.88
2023-03-15T16:20:42.817Z,4.40
2023-03-15T16:23:19.088Z,7.10
2023-03-15T16:25:49.465Z,5.18
2023-03-15T16:28:16.242Z,6.40
2023-03-15T16:30:45.993Z,6.50
2023-03-15T16:33:21.153Z,7.15
2023-03-15T16:35:50.095Z,5.15
2023-03-15T16:38:24.256Z,5.07
2023-03-15T16:40:52.985Z,3.35
2023-03-15T16:43:20.184Z,4.78
2023-03-15T16:45:47.106Z,4.68
2023-03-15T16:48:14.376Z,4.80
2023-03-15T16:50:42.309Z,4.72
2023-03-15T16:53:12.423Z,4.85
2023-03-15T16:55:45.819Z,4.07
2023-03-15T16:58:19.718Z,5.22
2023-03-15T17:00:48.131Z,3.50
2023-03-15T17:03:16.549Z,9.40
2023-03-15T17:05:45.972Z,7.97
2023-03-15T17:08:19.880Z,4.82
2023-03-15T17:10:47.321Z,6.07
2023-03-15T17:13:16.246Z,4.95
2023-03-15T17:15:43.122Z,5.50
2023-03-15T17:18:29.973Z,5.28
2023-03-15T17:20:56.738Z,6.85
2023-03-15T17:23:24.222Z,5.35
2023-03-15T17:25:51.465Z,5.30
2023-03-15T17:28:18.245Z,4.63
2023-03-15T17:30:45.184Z,3.78
2023-03-15T17:33:12.052Z,3.70
2023-03-15T17:35:46.476Z,3.70
2023-03-15T17:38:18.120Z,7.35
2023-03-15T17:40:45.598Z,5.05
2023-03-15T17:43:14.186Z,4.57
2023-03-15T17:45:41.568Z,5.40
2023-03-15T17:48:08.313Z,4.20
2023-03-15T17:50:35.690Z,5.43
2023-03-15T17:53:05.372Z,4.20
2023-03-15T17:55:34.847Z,4.38
2023-03-15T17:58:11.439Z,7.25
2023-03-15T18:00:38.807Z,5.55
2023-03-15T18:03:05.611Z,5.22
2023-03-15T18:05:32.296Z,5.90
2023-03-15T18:08:00.070Z,7.05
2023-03-15T18:10:34.216Z,4.88
2023-03-15T18:13:01.435Z,4.90
2023-03-15T18:15:28.505Z,7.07
2023-03-15T18:17:55.354Z,5.15
2023-03-15T18:20:23.906Z,5.30
2023-03-15T18:22:51.107Z,5.55
2023-03-15T18:25:22.077Z,6.85
2023-03-15T18:27:49.289Z,4.95
2023-03-15T18:30:18.774Z,4.22
2023-03-15T18:32:45.891Z,8.10
2023-03-15T18:35:22.035Z,15.43
2023-03-15T18:37:49.038Z,11.82
2023-03-15T18:40:17.993Z,14.52
2023-03-15T18:42:45.502Z,10.65
2023-03-15T18:45:30.577Z,5.53
2023-03-15T18:47:59.837Z,5.88
2023-03-15T18:50:27.846Z,8.35
2023-03-15T18:52:54.796Z,5.40
2023-03-15T18:55:23.935Z,3.95
2023-03-15T18:57:52.069Z,4.57
2023-03-15T19:00:32.459Z,4.72
2023-03-15T19:03:00.770Z,4.75
2023-03-15T19:05:29.368Z,3.92
2023-03-15T19:07:56.301Z,4.93
2023-03-15T19:10:24.375Z,4.32
2023-03-15T19:12:53.040Z,5.00
2023-03-15T19:15:21.487Z,8.32
2023-03-15T19:17:50.947Z,5.85
2023-03-15T19:20:22.562Z,6.10
2023-03-15T19:22:52.862Z,7.53
2023-03-15T19:25:20.609Z,6.88
2023-03-15T19:27:47.515Z,7.97
2023-03-15T19:30:18.100Z,7.30
2023-03-15T19:32:48.149Z,8.68
2023-03-15T19:35:15.620Z,7.10
2023-03-15T19:37:44.304Z,6.88
2023-03-15T19:40:16.056Z,7.57
2023-03-15T19:42:42.973Z,6.07
2023-03-15T19:45:10.161Z,6.30
2023-03-15T19:47:36.917Z,6.72
2023-03-15T19:50:05.309Z,6.03
2023-03-15T19:52:33.360Z,6.55
2023-03-15T19:55:01.024Z,5.85
2023-03-15T19:57:28.480Z,5.80
2023-03-15T19:59:55.205Z,6.15
2023-03-15T20:02:22.034Z,6.47
2023-03-15T20:04:48.802Z,7.78
2023-03-15T20:07:15.556Z,6.70
2023-03-15T20:09:42.372Z,5.50
2023-03-15T20:12:11.162Z,6.32
2023-03-15T20:14:38.306Z,6.43
2023-03-15T20:17:05.421Z,5.82
2023-03-15T20:19:32.265Z,5.45
2023-03-15T20:21:59.128Z,5.53
2023-03-15T20:24:26.131Z,8.10
2023-03-15T20:26:53.307Z,6.18
2023-03-15T20:29:22.280Z,7.80
2023-03-15T20:31:49.644Z,8.57
2023-03-15T20:34:17.301Z,7.35
2023-03-15T20:36:44.310Z,7.43
2023-03-15T20:39:11.094Z,8.07
2023-03-15T20:41:39.121Z,6.88
2023-03-15T20:44:06.701Z,7.53
2023-03-15T20:46:34.231Z,9.10
2023-03-15T20:49:01.415Z,9.40
2023-03-15T20:51:28.360Z,8.52
2023-03-15T20:53:55.506Z,8.10
2023-03-15T20:56:22.782Z,8.02
2023-03-15T20:58:49.660Z,7.45
2023-03-15T21:01:17.329Z,8.73
2023-03-15T21:03:45.258Z,7.90
2023-03-15T21:06:12.132Z,8.18
2023-03-15T21:08:38.990Z,9.73
2023-03-15T21:11:06.691Z,8.68
2023-03-15T21:13:34.568Z,9.48
2023-03-15T21:16:04.217Z,8.48
2023-03-15T21:18:32.554Z,9.65
2023-03-15T21:21:07.294Z,8.30
2023-03-15T21:23:35.610Z,7.88
2023-03-15T21:26:05.180Z,8.43
2023-03-15T21:28:32.511Z,7.38
2023-03-15T21:30:59.888Z,8.75
2023-03-15T21:33:29.367Z,8.38
2023-03-15T21:35:58.835Z,7.53
2023-03-15T21:38:27.037Z,7.63
2023-03-15T21:40:59.160Z,8.13
2023-03-15T21:43:27.949Z,8.65
2023-03-15T21:45:54.824Z,9.40
2023-03-15T21:48:21.690Z,7.55
2023-03-15T21:50:53.348Z,8.88
2023-03-15T21:53:21.350Z,10.32
2023-03-15T21:55:48.161Z,8.88
2023-03-15T21:58:15.070Z,9.10
2023-03-15T22:00:42.705Z,7.13
2023-03-15T22:03:09.609Z,8.10
2023-03-15T22:05:36.677Z,7.22
2023-03-15T22:08:06.746Z,9.27
2023-03-15T22:10:33.581Z,10.80
2023-03-15T22:13:00.320Z,8.85
2023-03-15T22:15:27.065Z,8.50
2023-03-15T22:17:53.803Z,8.43
2023-03-15T22:20:20.525Z,8.73
2023-03-15T22:22:49.160Z,8.50
2023-03-15T22:25:16.693Z,8.38
2023-03-15T22:27:43.603Z,7.55
2023-03-15T22:30:13.561Z,8.00
2023-03-15T22:32:44.544Z,7.30
2023-03-15T22:35:16.092Z,7.65
2023-03-15T22:37:43.253Z,8.23
2023-03-15T22:40:14.080Z,8.35
2023-03-15T22:42:42.751Z,9.52
2023-03-15T22:45:10.174Z,9.45
2023-03-15T22:47:36.949Z,9.20
2023-03-15T22:50:03.853Z,9.40
2023-03-15T22:52:30.976Z,12.75
2023-03-15T22:54:57.704Z,8.45
2023-03-15T22:57:24.435Z,9.25
2023-03-15T22:59:51.257Z,10.07
2023-03-15T23:02:18.016Z,10.18
2023-03-15T23:04:45.872Z,13.13
2023-03-15T23:07:13.293Z,11.48
2023-03-15T23:09:40.225Z,14.52
2023-03-15T23:12:07.306Z,18.20
2023-03-15T23:14:34.238Z,16.33
2023-03-15T23:17:04.199Z,17.35
2023-03-15T23:19:35.177Z,48.75
2023-03-15T23:22:04.354Z,88.82
2023-03-15T23:24:33.924Z,94.05
2023-03-15T23:27:03.456Z,39.58
2023-03-15T23:29:47.113Z,52.50
2023-03-15T23:32:20.603Z,49.33
2023-03-15T23:34:48.058Z,28.20
2023-03-15T23:37:17.520Z,17.38
2023-03-15T23:39:44.377Z,22.33
2023-03-15T23:42:11.281Z,22.08
2023-03-15T23:44:38.426Z,18.50
2023-03-15T23:47:06.383Z,23.00
2023-03-15T23:49:33.756Z,21.95
2023-03-15T23:52:05.683Z,18.00
2023-03-15T23:54:39.351Z,16.63
2023-03-15T23:57:07.531Z,18.10
2023-03-15T23:59:36.059Z,17.95
